Time;durP1;ratioP1;P1;durP2;ratioP2;P2;SDS_P1;SDS_P2;PMS_P1;PMS_P2;Temp;Humidity;BMP_temperature;BMP_pressure;BME280_temperature;BME280_humidity;BME280_pressure;Samples;Min_cycle;Max_cycle;Signal;HPM_P1;HPM_P2
2022/04/14 00:01:54;;;;;;;18.55;11.15;;;9.00;99.90;;;;;;5114883;28;20130;-73
2022/04/14 00:04:19;;;;;;;;;;;9.00;99.90;;;;;;5114665;28;20048;-72
2022/04/14 00:06:45;;;;;;;18.77;10.35;;;8.90;99.90;;;;;;5096952;28;19981;-72
2022/04/14 00:09:10;;;;;;;;;;;8.90;99.90;;;;;;5097488;28;20075;-72
2022/04/14 00:11:38;;;;;;;20.02;11.60;;;8.90;99.90;;;;;;5097689;28;19963;-72
2022/04/14 00:14:04;;;;;;;23.20;12.52;;;8.90;99.90;;;;;;5094520;28;20047;-72
2022/04/14 00:16:32;;;;;;;;;;;9.20;99.90;;;;;;5094646;28;20085;-72
2022/04/14 00:18:58;;;;;;;19.95;11.77;;;8.80;99.90;;;;;;5085898;28;19920;-73
2022/04/14 00:21:23;;;;;;;;;;;8.80;99.90;;;;;;5077170;28;20093;-72
2022/04/14 00:23:49;;;;;;;22.30;12.30;;;8.80;99.90;;;;;;5074054;28;19963;-73
2022/04/14 00:26:15;;;;;;;;;;;8.80;99.90;;;;;;5064149;28;20040;-73
2022/04/14 00:28:43;;;;;;;20.35;12.55;;;8.80;99.90;;;;;;5056078;28;19916;-73
2022/04/14 00:31:09;;;;;;;;;;;8.70;99.90;;;;;;5056554;28;20043;-72
2022/04/14 00:33:34;;;;;;;19.58;11.63;;;8.70;99.90;;;;;;5072692;28;19935;-73
2022/04/14 00:36:00;;;;;;;;;;;8.70;99.90;;;;;;5056223;28;20064;-73
2022/04/14 00:38:26;;;;;;;21.63;12.57;;;8.70;99.90;;;;;;5089934;28;20014;-72
2022/04/14 00:40:52;;;;;;;16.33;11.45;;;8.60;99.90;;;;;;5093867;28;20118;-73
2022/04/14 00:43:20;;;;;;;19.83;12.27;;;8.60;99.90;;;;;;5093661;28;20081;-73
2022/04/14 00:45:49;;;;;;;18.40;12.70;;;8.60;99.90;;;;;;5075995;28;20048;-73
2022/04/14 00:48:15;;;;;;;20.65;12.95;;;8.60;99.90;;;;;;5074433;28;20452;-73
2022/04/14 00:51:03;;;;;;;23.20;12.85;;;8.60;99.90;;;;;;5094163;28;20059;-73
2022/04/14 00:53:28;;;;;;;22.30;13.15;;;8.60;99.90;;;;;;5092882;28;20073;-73
2022/04/14 00:55:54;;;;;;;;;;;8.70;99.90;;;;;;5094381;28;20040;-73
2022/04/14 00:58:19;;;;;;;25.50;13.90;;;8.60;99.90;;;;;;5075218;28;20379;-73
2022/04/14 01:00:45;;;;;;;;;;;8.70;99.90;;;;;;5075788;28;20052;-73
2022/04/14 01:03:10;;;;;;;23.45;13.38;;;8.70;99.90;;;;;;5093543;28;19927;-73
2022/04/14 01:05:37;;;;;;;;;;;8.70;99.90;;;;;;5075819;28;20087;-73
2022/04/14 01:08:05;;;;;;;27.27;14.95;;;8.80;99.90;;;;;;5093322;28;20263;-73
2022/04/14 01:10:31;;;;;;;23.48;12.77;;;8.80;99.90;;;;;;5093188;28;20047;-73
2022/04/14 01:12:57;;;;;;;21.90;12.88;;;8.80;99.90;;;;;;5093171;28;20491;-73
2022/04/14 01:15:23;;;;;;;;;;;8.80;99.90;;;;;;5092955;28;20065;-72
2022/04/14 01:17:48;;;;;;;22.70;13.00;;;8.90;99.90;;;;;;5075505;28;20001;-73
2022/04/14 01:20:14;;;;;;;;;;;8.80;99.90;;;;;;5093574;28;20047;-72
2022/04/14 01:22:55;;;;;;;20.42;12.40;;;9.40;99.90;;;;;;5092844;28;19927;-72
2022/04/14 01:25:21;;;;;;;24.27;13.43;;;8.80;99.90;;;;;;5074750;28;20119;-73
2022/04/14 01:27:46;;;;;;;;;;;8.80;99.90;;;;;;5075604;28;20178;-72
2022/04/14 01:30:12;;;;;;;26.02;14.70;;;8.90;99.90;;;;;;5092278;28;20355;-72
2022/04/14 01:32:37;;;;;;;;;;;8.80;99.90;;;;;;5078936;28;20517;-73
2022/04/14 01:35:05;;;;;;;26.55;14.82;;;8.80;99.90;;;;;;5113434;28;19920;-72
2022/04/14 01:37:30;;;;;;;27.13;14.88;;;8.70;99.90;;;;;;5094360;28;20403;-72
2022/04/14 01:39:56;;;;;;;;;;;8.70;99.90;;;;;;5095635;28;20036;-72
2022/04/14 01:42:24;;;;;;;23.38;13.40;;;8.70;99.90;;;;;;5113268;28;19920;-73
2022/04/14 01:44:50;;;;;;;25.50;15.90;;;8.70;99.90;;;;;;5094850;28;20502;-73
2022/04/14 01:47:18;;;;;;;24.10;14.55;;;8.60;99.90;;;;;;5112883;28;20399;-72
2022/04/14 01:49:44;;;;;;;;;;;8.60;99.90;;;;;;5094463;28;20106;-73
2022/04/14 01:52:09;;;;;;;22.85;13.50;;;8.50;99.90;;;;;;5113178;28;19919;-72
2022/04/14 01:54:35;;;;;;;;;;;8.50;99.90;;;;;;5095063;28;20073;-72
2022/04/14 01:57:00;;;;;;;22.23;13.57;;;8.50;99.90;;;;;;5112465;28;19948;-72
2022/04/14 01:59:26;;;;;;;;;;;8.40;99.90;;;;;;5094352;28;20046;-72
2022/04/14 02:01:51;;;;;;;23.50;14.52;;;8.40;99.90;;;;;;5113139;28;19920;-72
2022/04/14 02:04:17;;;;;;;;;;;8.40;99.90;;;;;;5094240;28;20043;-72
2022/04/14 02:06:46;;;;;;;24.10;14.38;;;8.40;99.90;;;;;;5112770;28;19920;-73
2022/04/14 02:09:12;;;;;;;;;;;8.30;99.90;;;;;;5094701;28;20049;-73
2022/04/14 02:11:38;;;;;;;21.63;13.50;;;8.30;99.90;;;;;;5093657;28;19927;-72
2022/04/14 02:14:03;;;;;;;;;;;8.30;99.90;;;;;;5095253;28;20040;-72
2022/04/14 02:16:29;;;;;;;21.95;13.45;;;8.20;99.90;;;;;;5112486;28;20010;-72
2022/04/14 02:18:54;;;;;;;;;;;8.20;99.90;;;;;;5094484;28;20542;-72
2022/04/14 02:21:20;;;;;;;23.23;14.07;;;8.20;99.90;;;;;;5112262;28;19915;-72
2022/04/14 02:23:45;;;;;;;;;;;8.10;99.90;;;;;;5113252;28;20070;-72
2022/04/14 02:26:11;;;;;;;24.83;14.25;;;8.00;99.90;;;;;;5112132;28;19928;-72
2022/04/14 02:28:36;;;;;;;;;;;8.00;99.90;;;;;;5094775;28;20059;-72
2022/04/14 02:31:02;;;;;;;24.30;13.98;;;7.90;99.90;;;;;;5112858;28;20057;-72
2022/04/14 02:33:27;;;;;;;;;;;7.80;99.90;;;;;;5093981;28;20052;-72
2022/04/14 02:35:56;;;;;;;23.17;13.50;;;7.90;99.90;;;;;;5112564;28;19919;-72
2022/04/14 02:38:21;;;;;;;23.83;14.40;;;7.80;99.90;;;;;;5094013;28;20130;-72
2022/04/14 02:40:47;;;;;;;;;;;7.80;99.90;;;;;;5112959;28;20146;-72
2022/04/14 02:43:13;;;;;;;26.83;15.00;;;7.80;99.90;;;;;;5094669;28;20278;-73
2022/04/14 02:45:38;;;;;;;;;;;7.80;99.90;;;;;;5113008;28;20039;-72
2022/04/14 02:48:04;;;;;;;27.02;15.57;;;7.80;99.90;;;;;;5111986;28;19993;-72
2022/04/14 02:50:32;;;;;;;23.83;14.20;;;7.80;99.90;;;;;;5088232;28;20087;-72
2022/04/14 02:52:58;;;;;;;;;;;7.70;99.90;;;;;;5092289;28;20075;-73
2022/04/14 02:55:23;;;;;;;23.38;14.05;;;7.70;99.90;;;;;;5073876;28;20330;-72
2022/04/14 02:57:49;;;;;;;;;;;7.70;99.90;;;;;;5092788;28;20051;-72
2022/04/14 03:00:15;;;;;;;21.17;13.85;;;7.60;99.90;;;;;;5091600;28;19916;-73
2022/04/14 03:02:42;;;;;;;22.35;13.68;;;7.60;99.90;;;;;;5077118;28;20139;-73
2022/04/14 03:05:09;;;;;;;24.60;12.93;;;7.60;99.90;;;;;;5100551;28;20035;-72
2022/04/14 03:07:35;;;;;;;48.95;11.85;;;7.50;99.90;;;;;;5115552;28;20880;-72
2022/04/14 03:10:00;;;;;;;;;;;7.30;99.90;;;;;;5098758;28;20044;-72
2022/04/14 03:12:38;;;;;;;23.75;11.82;;;7.20;99.90;;;;;;5115713;28;20358;-72
2022/04/14 03:15:04;;;;;;;24.58;13.75;;;7.10;99.90;;;;;;5115348;28;20546;-72
2022/04/14 03:17:29;;;;;;;;;;;7.10;99.90;;;;;;5116281;28;20051;-72
2022/04/14 03:19:55;;;;;;;39.28;13.63;;;7.10;99.90;;;;;;5116008;28;19916;-72
2022/04/14 03:22:20;;;;;;;;;;;7.10;99.90;;;;;;5115494;28;20044;-72
2022/04/14 03:24:49;;;;;;;22.13;13.52;;;7.20;99.90;;;;;;5097726;28;19983;-73
2022/04/14 03:27:14;;;;;;;;;;;7.10;99.90;;;;;;5098024;28;20080;-73
2022/04/14 03:29:41;;;;;;;28.92;14.27;;;7.10;99.90;;;;;;5114802;28;19947;-73
2022/04/14 03:32:07;;;;;;;60.97;14.70;;;7.10;99.90;;;;;;5115966;28;20042;-73
2022/04/14 03:34:32;;;;;;;;;;;7.20;99.90;;;;;;5077138;28;20052;-73
2022/04/14 03:36:58;;;;;;;48.15;13.52;;;7.10;99.90;;;;;;5094959;28;19924;-73
2022/04/14 03:39:24;;;;;;;;;;;7.00;99.90;;;;;;5094934;28;20040;-73
2022/04/14 03:41:49;;;;;;;75.40;14.88;;;7.00;99.90;;;;;;5076606;28;19927;-73
2022/04/14 03:44:15;;;;;;;;;;;7.00;99.90;;;;;;5076710;28;20051;-73
2022/04/14 03:46:40;;;;;;;45.95;12.90;;;6.90;99.90;;;;;;5095183;28;19920;-73
2022/04/14 03:49:06;;;;;;;;;;;6.80;99.90;;;;;;5076845;28;20043;-73
2022/04/14 03:51:32;;;;;;;44.80;13.23;;;6.80;99.90;;;;;;5076641;28;19920;-73
2022/04/14 03:53:57;;;;;;;;;;;6.70;99.90;;;;;;5077029;28;20052;-73
2022/04/14 03:56:26;;;;;;;86.18;15.10;;;6.80;99.90;;;;;;5093648;28;19920;-72
2022/04/14 03:58:51;;;;;;;47.35;12.65;;;7.70;99.90;;;;;;5094872;28;20123;-73
2022/04/14 04:01:17;;;;;;;;;;;6.70;99.90;;;;;;5095165;28;20149;-73
2022/04/14 04:03:42;;;;;;;24.88;11.40;;;6.70;99.90;;;;;;5076424;28;19920;-73
2022/04/14 04:06:08;;;;;;;;;;;6.70;99.90;;;;;;5076757;28;20474;-72
2022/04/14 04:08:34;;;;;;;28.65;12.07;;;6.70;99.90;;;;;;5094457;28;19924;-73
2022/04/14 04:10:59;;;;;;;;;;;6.70;99.90;;;;;;5076135;28;20511;-72
2022/04/14 04:13:25;;;;;;;20.95;11.82;;;6.70;99.90;;;;;;5074000;28;19920;-72
2022/04/14 04:15:50;;;;;;;;;;;6.70;99.90;;;;;;5076236;28;20182;-72
2022/04/14 04:18:16;;;;;;;19.63;11.65;;;6.70;99.90;;;;;;5074871;28;20359;-73
2022/04/14 04:20:42;;;;;;;;;;;6.70;99.90;;;;;;5093773;28;20036;-73
2022/04/14 04:23:07;;;;;;;21.92;11.68;;;6.80;99.90;;;;;;5069336;28;20390;-73
2022/04/14 04:25:33;;;;;;;;;;;6.80;99.90;;;;;;5092656;28;20051;-73
2022/04/14 04:27:58;;;;;;;20.58;10.73;;;6.70;99.90;;;;;;5076288;28;19919;-71
2022/04/14 04:30:27;;;;;;;;;;;6.70;99.90;;;;;;5075656;28;20040;-73
2022/04/14 04:32:52;;;;;;;16.17;10.63;;;8.10;99.90;;;;;;5092997;28;19920;-72
2022/04/14 04:35:18;;;;;;;;;;;6.70;99.90;;;;;;5094612;28;20032;-72
2022/04/14 04:37:44;;;;;;;18.23;11.55;;;6.70;99.90;;;;;;5094365;28;19924;-72
2022/04/14 04:40:10;;;;;;;;;;;6.70;99.90;;;;;;5074835;28;20043;-73
2022/04/14 04:42:35;;;;;;;40.15;13.27;;;6.70;99.90;;;;;;5093016;28;19920;-72
2022/04/14 04:45:01;;;;;;;;;;;6.70;99.90;;;;;;5092957;28;20046;-73
2022/04/14 04:47:27;;;;;;;18.13;11.27;;;6.70;99.90;;;;;;5091497;28;19965;-73
2022/04/14 04:49:52;;;;;;;;;;;6.70;99.90;;;;;;5075860;28;20055;-72
2022/04/14 04:52:18;;;;;;;16.92;11.68;;;6.70;99.90;;;;;;5093479;28;19915;-72
2022/04/14 04:54:43;;;;;;;;;;;6.60;99.90;;;;;;5075324;28;20051;-72
2022/04/14 04:57:09;;;;;;;14.98;10.80;;;6.60;99.90;;;;;;5092545;28;19923;-72
2022/04/14 04:59:35;;;;;;;;;;;6.60;99.90;;;;;;5075179;28;20051;-71
2022/04/14 05:02:01;;;;;;;20.52;11.93;;;6.70;99.90;;;;;;5093140;28;20026;-71
2022/04/14 05:04:26;;;;;;;;;;;6.70;99.90;;;;;;5075513;28;20048;-72
2022/04/14 05:06:52;;;;;;;18.58;11.40;;;6.70;99.90;;;;;;5092992;28;19988;-72
2022/04/14 05:09:17;;;;;;;;;;;6.70;99.90;;;;;;5074885;28;20044;-72
2022/04/14 05:11:43;;;;;;;22.08;12.75;;;6.80;99.90;;;;;;5070835;28;19931;-72
2022/04/14 05:14:11;;;;;;;21.33;13.68;;;6.90;99.90;;;;;;5091942;28;20040;-71
2022/04/14 05:16:37;;;;;;;;;;;6.90;99.90;;;;;;5093600;28;20047;-72
2022/04/14 05:19:05;;;;;;;24.08;14.18;;;7.00;99.90;;;;;;5074570;28;19959;-71
2022/04/14 05:21:31;;;;;;;21.50;14.27;;;7.10;99.90;;;;;;5071598;28;20053;-73
2022/04/14 05:23:56;;;;;;;;;;;7.30;99.90;;;;;;5075074;28;20054;-78
2022/04/14 05:26:22;;;;;;;20.42;14.13;;;7.30;99.90;;;;;;5092551;28;19920;-71
2022/04/14 05:28:48;;;;;;;23.75;15.05;;;7.40;99.90;;;;;;5091293;28;20451;-75
2022/04/14 05:31:14;;;;;;;;;;;7.40;99.90;;;;;;5093065;28;20428;-72
2022/04/14 05:33:39;;;;;;;23.40;14.10;;;7.50;99.90;;;;;;5103368;28;19919;-71
2022/04/14 05:36:05;;;;;;;;;;;7.60;99.90;;;;;;5112927;28;20047;-71
2022/04/14 05:38:31;;;;;;;24.23;15.82;;;7.60;99.90;;;;;;5094960;28;20268;-73
2022/04/14 05:40:56;;;;;;;;;;;7.70;99.90;;;;;;5087105;28;20040;-74
2022/04/14 05:43:28;;;;;;;25.40;15.88;;;7.70;99.90;;;;;;5055267;28;19928;-73
2022/04/14 05:45:54;;;;;;;28.45;16.67;;;7.80;99.90;;;;;;5076489;28;20036;-73
2022/04/14 05:48:23;;;;;;;26.83;17.23;;;7.90;99.90;;;;;;5059908;28;20071;-72
2022/04/14 05:50:50;;;;;;;27.50;16.90;;;7.90;99.90;;;;;;5062729;28;20127;-72
2022/04/14 05:53:17;;;;;;;24.45;16.40;;;8.00;99.90;;;;;;5092001;28;20562;-74
2022/04/14 05:55:44;;;;;;;23.80;14.77;;;8.00;99.90;;;;;;5070405;28;20051;-73
2022/04/14 05:58:12;;;;;;;28.52;16.55;;;8.10;99.90;;;;;;5085088;28;20040;-69
2022/04/14 06:00:43;;;;;;;25.30;16.08;;;8.20;99.90;;;;;;5083759;28;20144;-72
2022/04/14 06:03:12;;;;;;;25.73;16.33;;;8.20;99.90;;;;;;5092036;28;20040;-70
2022/04/14 06:05:37;;;;;;;;;;;8.30;99.90;;;;;;5092925;28;20036;-70
2022/04/14 06:08:03;;;;;;;27.48;15.80;;;8.40;99.90;;;;;;5074035;28;19926;-73
2022/04/14 06:10:29;;;;;;;;;;;8.40;99.90;;;;;;5074425;28;20131;-75
2022/04/14 06:12:55;;;;;;;25.80;15.68;;;8.50;99.90;;;;;;5099610;28;19923;-73
2022/04/14 06:15:21;;;;;;;;;;;8.60;99.90;;;;;;5095125;28;20052;-70
2022/04/14 06:17:47;;;;;;;29.77;15.85;;;8.70;99.90;;;;;;5093973;28;19923;-72
2022/04/14 06:20:13;;;;;;;;;;;8.80;99.90;;;;;;5105576;28;20127;-73
2022/04/14 06:22:39;;;;;;;33.85;18.70;;;8.90;99.90;;;;;;5074183;28;19920;-73
2022/04/14 06:25:12;;;;;;;30.98;18.08;;;9.00;99.90;;;;;;5073001;28;20483;-73
2022/04/14 06:27:44;;;;;;;31.05;17.75;;;9.10;99.90;;;;;;5075037;28;20036;-77
2022/04/14 06:30:14;;;;;;;32.15;18.45;;;9.20;99.90;;;;;;5071965;28;20118;-74
2022/04/14 06:32:41;;;;;;;31.25;18.27;;;9.30;99.90;;;;;;5053437;28;20507;-74
2022/04/14 06:35:12;;;;;;;28.92;16.35;;;9.30;99.90;;;;;;5076658;28;20040;-73
2022/04/14 06:37:38;;;;;;;33.25;18.40;;;9.40;99.90;;;;;;5083652;28;20087;-75
2022/04/14 06:40:04;;;;;;;;;;;9.50;99.90;;;;;;5089934;28;20460;-74
2022/04/14 06:42:29;;;;;;;29.17;16.42;;;9.70;99.90;;;;;;5077671;28;19920;-77
2022/04/14 06:44:59;;;;;;;;;;;9.70;99.90;;;;;;5074198;28;20048;-73
2022/04/14 06:47:25;;;;;;;31.48;15.48;;;9.80;99.90;;;;;;5091869;28;19967;-74
2022/04/14 06:49:51;;;;;;;25.98;15.82;;;9.90;99.90;;;;;;5074957;28;20052;-75
2022/04/14 06:52:17;;;;;;;;;;;10.30;99.90;;;;;;5077139;28;20479;-76
2022/04/14 06:54:43;;;;;;;22.02;13.43;;;10.10;99.90;;;;;;5077322;28;19924;-74
2022/04/14 06:57:09;;;;;;;26.13;14.98;;;10.20;99.90;;;;;;5077038;28;20084;-79
2022/04/14 06:59:34;;;;;;;;;;;10.30;99.90;;;;;;5095403;28;20445;-74
2022/04/14 07:02:00;;;;;;;22.73;13.57;;;10.40;99.90;;;;;;5095431;28;19977;-80
2022/04/14 07:04:27;;;;;;;;;;;10.50;99.90;;;;;;5074505;28;20033;-76
2022/04/14 07:06:52;;;;;;;28.40;14.43;;;10.60;99.90;;;;;;5088945;28;19926;-76
2022/04/14 07:09:18;;;;;;;;;;;10.60;99.90;;;;;;5095504;28;20282;-77
2022/04/14 07:11:44;;;;;;;25.52;13.43;;;10.70;99.90;;;;;;5096115;28;19927;-78
2022/04/14 07:14:09;;;;;;;;;;;10.80;99.90;;;;;;5076814;28;20528;-77
2022/04/14 07:16:38;;;;;;;24.80;14.18;;;11.20;99.90;;;;;;5094204;28;20015;-76
2022/04/14 07:19:18;;;;;;;27.02;15.35;;;12.10;99.90;;;;;;5078346;28;20165;-76
2022/04/14 07:21:47;;;;;;;25.02;14.10;;;13.40;99.90;;;;;;5072901;28;20039;-75
2022/04/14 07:24:13;;;;;;;21.48;13.23;;;14.50;99.90;;;;;;5092921;28;20059;-78
2022/04/14 07:26:38;;;;;;;;;;;15.80;99.90;;;;;;5093165;28;20035;-85
2022/04/14 07:29:04;;;;;;;17.15;10.57;;;16.80;99.90;;;;;;5102026;28;19924;-80
2022/04/14 07:31:31;;;;;;;15.88;10.27;;;17.60;99.90;;;;;;5074023;28;20121;-76
2022/04/14 07:34:00;;;;;;;16.92;10.73;;;18.60;99.90;;;;;;5092580;28;20063;-77
2022/04/14 07:36:26;;;;;;;16.13;10.38;;;19.10;99.90;;;;;;5072812;28;20052;-82
2022/04/14 07:38:57;;;;;;;15.40;10.18;;;19.60;99.90;;;;;;5067835;28;20048;-82
2022/04/14 07:41:22;;;;;;;13.18;9.30;;;19.80;99.90;;;;;;5083956;28;20056;-78
2022/04/14 07:43:48;;;;;;;14.27;8.75;;;20.60;99.90;;;;;;5063540;28;20537;-87
2022/04/14 07:46:14;;;;;;;11.88;9.20;;;21.50;99.90;;;;;;5070411;28;20041;-83
2022/04/14 07:48:39;;;;;;;13.63;9.23;;;21.50;99.90;;;;;;5080233;28;20432;-79
2022/04/14 07:51:05;;;;;;;13.32;8.50;;;21.70;99.90;;;;;;5074799;28;20051;-81
2022/04/14 07:53:31;;;;;;;14.73;9.32;;;22.10;99.90;;;;;;5062512;28;20086;-82
2022/04/14 07:55:57;;;;;;;12.02;8.80;;;22.40;99.30;;;;;;5062000;28;20079;-85
2022/04/14 07:58:22;;;;;;;11.35;8.40;;;23.80;99.90;;;;;;5065239;28;20111;-80
2022/04/14 08:00:50;;;;;;;11.25;8.30;;;23.90;99.90;;;;;;5078879;28;20481;-74
2022/04/14 08:03:16;;;;;;;11.95;8.68;;;23.60;96.90;;;;;;5101049;28;20041;-75
2022/04/14 08:05:46;;;;;;;11.82;7.97;;;23.50;97.40;;;;;;5090420;28;20078;-75
2022/04/14 08:08:17;;;;;;;11.82;8.23;;;24.00;96.80;;;;;;5074002;28;20040;-78
2022/04/14 08:10:49;;;;;;;11.13;7.82;;;24.30;94.90;;;;;;5093528;28;20226;-80
2022/04/14 08:13:16;;;;;;;12.00;8.43;;;24.70;95.10;;;;;;5093836;28;20043;-81
2022/04/14 08:15:42;;;;;;;11.18;8.63;;;24.50;95.00;;;;;;5078964;28;20068;-77
2022/04/14 08:18:09;;;;;;;10.57;8.20;;;24.90;95.00;;;;;;5092860;28;20044;-76
2022/04/14 08:20:39;;;;;;;10.80;7.75;;;25.20;93.90;;;;;;5111470;28;20039;-77
2022/04/14 08:23:06;;;;;;;11.82;7.80;;;25.20;93.30;;;;;;5089825;28;20433;-83
2022/04/14 08:25:35;;;;;;;10.10;7.90;;;25.30;91.60;;;;;;5081722;28;20380;-81
2022/04/14 08:28:03;;;;;;;9.55;6.78;;;25.40;92.00;;;;;;5090943;28;20047;-78
2022/04/14 08:30:30;;;;;;;11.63;6.80;;;25.50;90.90;;;;;;5073522;28;20412;-79
2022/04/14 08:32:57;;;;;;;10.95;7.07;;;25.80;88.30;;;;;;5088774;28;20461;-79
2022/04/14 08:35:25;;;;;;;8.65;6.78;;;25.80;90.30;;;;;;5086042;28;20044;-79
2022/04/14 08:37:54;;;;;;;7.15;5.55;;;25.70;89.50;;;;;;5091422;28;20048;-79
2022/04/14 08:40:22;;;;;;;9.65;5.60;;;25.70;89.60;;;;;;5073951;28;20036;-80
2022/04/14 08:43:00;;;;;;;7.53;5.15;;;25.90;85.60;;;;;;5092022;28;20044;-79
2022/04/14 08:45:31;;;;;;;7.90;5.07;;;25.80;88.30;;;;;;5070542;28;20810;-80
2022/04/14 08:47:59;;;;;;;9.75;5.38;;;26.10;86.30;;;;;;5069905;28;20060;-79
2022/04/14 08:50:25;;;;;;;6.72;4.38;;;26.10;81.90;;;;;;5054017;28;20040;-80
2022/04/14 08:52:51;;;;;;;8.88;4.90;;;26.10;85.40;;;;;;5055991;28;20055;-79
2022/04/14 08:55:17;;;;;;;7.10;4.47;;;26.20;81.40;;;;;;5092255;28;20044;-79
2022/04/14 08:57:44;;;;;;;5.70;4.30;;;26.40;82.70;;;;;;5073348;28;20131;-79
2022/04/14 09:00:13;;;;;;;6.78;5.10;;;26.20;84.40;;;;;;5085279;28;20173;-79
2022/04/14 09:02:43;;;;;;;7.97;5.68;;;26.10;83.50;;;;;;5070684;28;20057;-78
2022/04/14 09:05:09;;;;;;;7.60;5.60;;;25.70;85.10;;;;;;5081470;28;20041;-78
2022/04/14 09:07:35;;;;;;;9.15;6.45;;;25.30;84.10;;;;;;5074466;28;20432;-80
2022/04/14 09:10:02;;;;;;;9.80;6.75;;;25.70;88.70;;;;;;5086504;28;20081;-78
2022/04/14 09:12:29;;;;;;;8.90;6.95;;;25.90;87.50;;;;;;5080157;28;20433;-71
2022/04/14 09:14:55;;;;;;;8.82;6.40;;;26.10;88.30;;;;;;5073629;28;20063;-72
2022/04/14 09:17:21;;;;;;;10.15;6.53;;;26.10;87.20;;;;;;5092521;28;20392;-76
2022/04/14 09:19:48;;;;;;;9.98;6.07;;;26.30;82.50;;;;;;5090798;28;20048;-78
2022/04/14 09:22:14;;;;;;;9.57;6.00;;;25.50;82.30;;;;;;5090898;28;20055;-78
2022/04/14 09:24:50;;;;;;;8.75;6.00;;;25.30;85.60;;;;;;5074045;28;20040;-79
2022/04/14 09:27:29;;;;;;;8.98;6.15;;;25.20;85.80;;;;;;5069631;28;20161;-80
2022/04/14 09:29:57;;;;;;;9.35;6.50;;;25.40;86.60;;;;;;5091921;28;20050;-83
2022/04/14 09:32:45;;;;;;;10.60;6.80;;;25.40;86.40;;;;;;5091505;28;20499;-81
2022/04/14 09:35:19;;;;;;;9.15;6.68;;;25.20;88.10;;;;;;5072420;28;20060;-78
2022/04/14 09:37:45;;;;;;;8.77;7.05;;;25.60;87.00;;;;;;5081228;28;20499;-83
2022/04/14 09:40:12;;;;;;;9.63;6.55;;;25.70;87.60;;;;;;5080010;28;20036;-86
2022/04/14 09:42:41;;;;;;;8.15;5.78;;;26.10;86.90;;;;;;5089976;28;20503;-80
2022/04/14 09:45:19;;;;;;;7.20;4.90;;;25.80;85.90;;;;;;5070170;28;20051;-80
2022/04/14 09:47:46;;;;;;;7.03;4.90;;;25.70;83.10;;;;;;5064867;28;20060;-79
2022/04/14 09:50:31;;;;;;;6.25;4.68;;;26.20;84.20;;;;;;5080429;28;20044;-77
2022/04/14 09:53:05;;;;;;;7.80;4.82;;;26.30;81.80;;;;;;5074093;28;20403;-78
2022/04/14 09:55:32;;;;;;;7.32;4.50;;;26.10;80.00;;;;;;5086498;28;20048;-81
2022/04/14 09:58:11;;;;;;;6.80;4.38;;;26.70;81.40;;;;;;5071759;28;20046;-83
2022/04/14 10:00:43;;;;;;;6.97;4.47;;;27.00;77.90;;;;;;5093042;28;20481;-85
2022/04/14 10:03:14;;;;;;;6.43;4.90;;;27.30;75.80;;;;;;5096168;28;20106;-82
2022/04/14 10:05:41;;;;;;;7.15;4.93;;;27.50;78.00;;;;;;5076492;28;20051;-85
2022/04/14 10:08:08;;;;;;;7.45;5.10;;;27.70;76.30;;;;;;5097461;28;20659;-90
2022/04/14 10:10:38;;;;;;;8.18;5.30;;;27.50;75.60;;;;;;5092135;28;20085;-86
2022/04/14 10:13:06;;;;;;;7.60;5.32;;;27.60;76.40;;;;;;5096823;28;20093;-83
2022/04/14 10:15:38;;;;;;;8.45;5.38;;;27.30;74.70;;;;;;5072936;28;20060;-80
2022/04/14 10:18:17;;;;;;;7.05;4.82;;;27.10;73.20;;;;;;5095344;28;20044;-83
2022/04/14 10:20:47;;;;;;;6.78;4.85;;;27.10;76.40;;;;;;5095379;28;20028;-80
2022/04/14 10:23:15;;;;;;;6.07;4.20;;;27.20;74.50;;;;;;5097873;28;20051;-79
2022/04/14 10:25:42;;;;;;;8.85;4.90;;;27.30;73.70;;;;;;5110776;28;20035;-89
2022/04/14 10:28:16;;;;;;;7.45;4.22;;;27.30;73.60;;;;;;5087666;28;20058;-88
2022/04/14 10:30:46;;;;;;;6.22;3.88;;;26.90;72.80;;;;;;5080450;28;20043;-83
2022/04/14 10:33:12;;;;;;;7.13;4.10;;;26.90;74.30;;;;;;5071332;28;20105;-76
2022/04/14 10:35:39;;;;;;;5.70;3.70;;;26.90;74.30;;;;;;5093321;28;20102;-85
2022/04/14 10:38:17;;;;;;;5.80;4.00;;;26.70;76.00;;;;;;5091826;28;20071;-76
2022/04/14 10:41:13;;;;;;;5.07;3.38;;;26.70;76.60;;;;;;5090529;28;20498;-78
2022/04/14 10:43:44;;;;;;;5.80;3.40;;;27.10;72.10;;;;;;5088849;28;20648;-74
2022/04/14 10:46:14;;;;;;;5.88;3.20;;;27.50;71.00;;;;;;5080607;28;20503;-85
2022/04/14 10:48:41;;;;;;;6.18;3.35;;;27.00;68.80;;;;;;5087503;28;20488;-78
2022/04/14 10:51:26;;;;;;;6.78;3.90;;;26.90;71.70;;;;;;5094368;28;20044;-77
2022/04/14 10:54:06;;;;;;;5.13;3.83;;;26.90;74.40;;;;;;5100304;28;20524;-75
2022/04/14 10:56:37;;;;;;;6.25;4.10;;;27.20;74.20;;;;;;5092761;28;20181;-77
2022/04/14 10:59:12;;;;;;;6.00;3.35;;;26.70;72.70;;;;;;5092953;28;20406;-78
2022/04/14 11:01:47;;;;;;;4.97;2.85;;;27.00;73.10;;;;;;5090794;28;20047;-78
2022/04/14 11:04:31;;;;;;;6.00;3.28;;;26.90;71.10;;;;;;5090777;28;20105;-83
2022/04/14 11:07:13;;;;;;;5.95;3.45;;;26.60;70.40;;;;;;5092665;28;20138;-81
2022/04/14 11:09:38;;;;;;;5.80;3.63;;;26.20;73.00;;;;;;5091697;28;20050;-77
2022/04/14 11:12:09;;;;;;;7.85;4.15;;;26.20;74.90;;;;;;5088371;28;20135;-76
2022/04/14 11:14:36;;;;;;;10.45;5.15;;;25.80;76.60;;;;;;5091037;28;20127;-75
2022/04/14 11:17:03;;;;;;;13.73;5.25;;;25.80;77.50;;;;;;5096121;28;20047;-74
2022/04/14 11:19:30;;;;;;;8.38;4.57;;;25.70;74.80;;;;;;5091846;28;20774;-76
2022/04/14 11:21:58;;;;;;;9.48;4.50;;;25.60;76.40;;;;;;5093777;28;20047;-77
2022/04/14 11:24:36;;;;;;;7.15;4.40;;;25.60;77.50;;;;;;5095151;28;20048;-78
2022/04/14 11:27:12;;;;;;;8.65;5.15;;;25.80;79.10;;;;;;5092795;28;20177;-75
2022/04/14 11:29:39;;;;;;;8.10;4.32;;;25.80;78.60;;;;;;5088213;28;20422;-76
2022/04/14 11:32:05;;;;;;;7.75;5.20;;;25.50;77.80;;;;;;5088776;28;21135;-74
2022/04/14 11:34:35;;;;;;;6.93;4.70;;;25.30;79.70;;;;;;5081582;28;20451;-76
2022/04/14 11:37:01;;;;;;;7.65;4.82;;;25.00;80.00;;;;;;5101138;28;20043;-80
2022/04/14 11:39:29;;;;;;;7.72;5.28;;;25.10;80.20;;;;;;5112095;28;20152;-76
2022/04/14 11:42:28;;;;;;;8.95;5.20;;;24.70;83.70;;;;;;5099577;28;20068;-82
2022/04/14 11:45:00;;;;;;;8.23;5.50;;;24.90;82.40;;;;;;5059591;28;20056;-82
2022/04/14 11:47:27;;;;;;;9.07;4.60;;;24.90;82.70;;;;;;5071523;28;20044;-77
2022/04/14 11:49:53;;;;;;;10.73;5.15;;;24.70;84.00;;;;;;5089618;28;20559;-75
2022/04/14 11:52:21;;;;;;;8.75;4.63;;;25.00;85.20;;;;;;5088428;28;20044;-73
2022/04/14 11:54:49;;;;;;;11.10;4.95;;;25.00;83.10;;;;;;5094414;28;20051;-78
2022/04/14 11:57:20;;;;;;;7.18;4.40;;;25.20;82.50;;;;;;5082194;28;20411;-82
2022/04/14 11:59:54;;;;;;;7.65;3.80;;;25.50;83.00;;;;;;5096183;28;20048;-79
2022/04/14 12:02:23;;;;;;;7.15;3.92;;;25.70;82.80;;;;;;5104765;28;20068;-79
2022/04/14 12:04:51;;;;;;;22.35;4.88;;;25.90;82.60;;;;;;5073583;28;20047;-78
2022/04/14 12:07:18;;;;;;;9.18;3.60;;;25.80;80.90;;;;;;5097625;28;20780;-77
2022/04/14 12:09:45;;;;;;;8.55;3.85;;;25.90;81.50;;;;;;5079467;28;20044;-79
2022/04/14 12:12:18;;;;;;;5.93;3.63;;;25.80;80.40;;;;;;5091031;28;20040;-78
2022/04/14 12:14:52;;;;;;;15.05;3.78;;;25.80;80.40;;;;;;5078552;28;20052;-77
2022/04/14 12:17:23;;;;;;;5.82;3.60;;;25.50;82.40;;;;;;5107973;28;20398;-75
2022/04/14 12:19:55;;;;;;;7.72;3.53;;;25.50;81.10;;;;;;5073516;28;20123;-77
2022/04/14 12:22:22;;;;;;;6.35;3.60;;;25.50;81.70;;;;;;5092790;28;20547;-76
2022/04/14 12:25:03;;;;;;;5.40;3.78;;;25.20;81.40;;;;;;5083328;28;20079;-77
2022/04/14 12:27:38;;;;;;;7.82;3.78;;;24.80;82.50;;;;;;5109423;28;20043;-77
2022/04/14 12:30:05;;;;;;;7.32;4.35;;;24.70;84.10;;;;;;5070236;28;20031;-78
2022/04/14 12:32:30;;;;;;;6.65;4.00;;;24.50;83.00;;;;;;5081584;28;20048;-81
2022/04/14 12:34:56;;;;;;;6.82;4.22;;;24.60;85.20;;;;;;5090828;28;20050;-83
2022/04/14 12:37:32;;;;;;;7.20;3.85;;;24.20;86.00;;;;;;5081965;28;20054;-82
2022/04/14 12:40:17;;;;;;;7.35;3.65;;;23.70;88.70;;;;;;5088838;28;20045;-81
2022/04/14 12:42:44;;;;;;;7.00;4.22;;;23.70;90.50;;;;;;5075556;28;20048;-78
2022/04/14 12:45:14;;;;;;;10.15;4.00;;;23.30;90.50;;;;;;5097086;28;20126;-78
2022/04/14 12:47:47;;;;;;;8.00;4.25;;;23.10;91.20;;;;;;5067983;28;20053;-81
2022/04/14 12:50:19;;;;;;;10.00;3.97;;;22.90;92.00;;;;;;5080343;28;20072;-82
2022/04/14 12:53:04;;;;;;;8.50;4.28;;;22.80;92.60;;;;;;5104487;28;20543;-80
2022/04/14 12:55:33;;;;;;;7.60;4.00;;;22.70;92.90;;;;;;5082076;28;20044;-76
2022/04/14 12:58:12;;;;;;;5.68;3.08;;;22.50;92.70;;;;;;5084987;28;20133;-76
2022/04/14 13:00:38;;;;;;;6.50;3.20;;;22.40;92.40;;;;;;5079238;28;20031;-72
2022/04/14 13:03:13;;;;;;;6.82;3.45;;;22.20;93.20;;;;;;5101057;28;20047;-76
2022/04/14 13:05:42;;;;;;;5.18;3.55;;;21.90;93.40;;;;;;5071145;28;20044;-75
2022/04/14 13:08:08;;;;;;;6.18;3.20;;;21.70;93.70;;;;;;5097531;28;20048;-78